createdAt,value
2018-12-21T00:02:00.419Z,99040.41
2018-12-21T00:04:27.865Z,99032.91
2018-12-21T00:06:56.076Z,99042.35
2018-12-21T00:09:23.589Z,99044.95
2018-12-21T00:11:51.049Z,99047.59
2018-12-21T00:14:18.477Z,99039.31
2018-12-21T00:16:45.929Z,99030.97
2018-12-21T00:19:13.369Z,99023.89
2018-12-21T00:21:40.837Z,99014.69
2018-12-21T00:24:08.259Z,99006.65
2018-12-21T00:26:35.665Z,99008.63
2018-12-21T00:29:04.571Z,98993.65
2018-12-21T00:31:37.517Z,98994.55
2018-12-21T00:34:10.521Z,98994.68
2018-12-21T00:36:43.597Z,98994.33
2018-12-21T00:39:16.562Z,98993.16
2018-12-21T00:41:43.473Z,98997.85
2018-12-21T00:44:10.927Z,98995.34
2018-12-21T00:46:38.347Z,98997.13
2018-12-21T00:49:05.786Z,98997.99
2018-12-21T00:51:33.206Z,98987.31
2018-12-21T00:54:00.706Z,98991.48
2018-12-21T00:56:28.132Z,98984.05
2018-12-21T00:58:55.568Z,98973.83
2018-12-21T01:01:23.028Z,98973.27
2018-12-21T01:03:51.785Z,98976.52
2018-12-21T01:06:19.422Z,98972.14
2018-12-21T01:08:46.859Z,98971.88
2018-12-21T01:11:14.436Z,98967.62
2018-12-21T01:13:41.937Z,98968.77
2018-12-21T01:16:09.422Z,98959.47
2018-12-21T01:18:36.902Z,98960.47
2018-12-21T01:21:04.335Z,98956.50
2018-12-21T01:23:31.836Z,98954.92
2018-12-21T01:25:59.328Z,98953.67
2018-12-21T01:28:26.759Z,98956.14
2018-12-21T01:30:54.203Z,98957.32
2018-12-21T01:33:21.641Z,98954.64
2018-12-21T01:35:49.108Z,98945.09
2018-12-21T01:38:16.572Z,98947.88
2018-12-21T01:40:44.075Z,98952.46
2018-12-21T01:43:11.624Z,98937.94
2018-12-21T01:45:39.079Z,98943.09
2018-12-21T01:48:06.543Z,98938.58
2018-12-21T01:50:34.066Z,98941.80
2018-12-21T01:53:01.562Z,98930.28
2018-12-21T01:55:29.050Z,98932.67
2018-12-21T01:57:56.527Z,98925.45
2018-12-21T02:00:23.997Z,98923.38
2018-12-21T02:02:51.443Z,98912.77
2018-12-21T02:05:18.918Z,98907.03
2018-12-21T02:07:46.330Z,98898.80
2018-12-21T02:10:15.561Z,98891.99
2018-12-21T02:12:43.016Z,98884.68
2018-12-21T02:15:10.509Z,98887.26
2018-12-21T02:17:37.948Z,98884.51
2018-12-21T02:20:05.420Z,98875.48
2018-12-21T02:22:32.844Z,98873.48
2018-12-21T02:25:00.291Z,98878.02
2018-12-21T02:27:27.732Z,98864.34
2018-12-21T02:29:55.252Z,98862.17
2018-12-21T02:32:22.712Z,98853.37
2018-12-21T02:34:50.155Z,98846.28
2018-12-21T02:37:17.704Z,98849.61
2018-12-21T02:39:45.216Z,98844.64
2018-12-21T02:42:12.622Z,98841.18
2018-12-21T02:44:40.079Z,98837.05
2018-12-21T02:47:07.484Z,98830.02
2018-12-21T02:49:34.939Z,98831.08
2018-12-21T02:52:05.733Z,98828.58
2018-12-21T02:54:29.830Z,98826.41
2018-12-21T02:56:57.266Z,98827.64
2018-12-21T02:59:24.701Z,98817.86
2018-12-21T03:01:52.147Z,98810.85
2018-12-21T03:04:19.554Z,98812.03
2018-12-21T03:06:47.001Z,98793.36
2018-12-21T03:09:15.335Z,98790.84
2018-12-21T03:11:42.777Z,98790.69
2018-12-21T03:14:10.192Z,98775.42
2018-12-21T03:16:37.695Z,98778.59
2018-12-21T03:19:05.543Z,98762.97
2018-12-21T03:21:32.977Z,98762.09
2018-12-21T03:24:00.587Z,98751.35
2018-12-21T03:26:27.847Z,98752.13
2018-12-21T03:28:55.293Z,98739.78
2018-12-21T03:31:22.719Z,98733.80
2018-12-21T03:33:50.159Z,98738.43
2018-12-21T03:36:17.618Z,98733.46
2018-12-21T03:38:45.061Z,98724.17
2018-12-21T03:41:12.482Z,98724.77
2018-12-21T03:43:39.919Z,98727.25
2018-12-21T03:46:07.378Z,98729.80
2018-12-21T03:48:35.083Z,98722.28
2018-12-21T03:51:02.582Z,98732.78
2018-12-21T03:53:30.024Z,98725.95
2018-12-21T03:55:57.438Z,98716.66
2018-12-21T03:58:24.854Z,98719.33
2018-12-21T04:00:52.287Z,98727.19
2018-12-21T04:03:19.733Z,98714.22
2018-12-21T04:05:47.169Z,98710.31
2018-12-21T04:08:14.594Z,98695.35
2018-12-21T04:10:42.033Z,98680.41
2018-12-21T04:13:09.470Z,98670.19
2018-12-21T04:15:37.845Z,98652.07
2018-12-21T04:18:05.392Z,98647.20
2018-12-21T04:20:32.834Z,98639.08
2018-12-21T04:23:00.283Z,98633.91
2018-12-21T04:25:27.999Z,98624.25
2018-12-21T04:27:55.471Z,98609.38
2018-12-21T04:30:22.883Z,98599.36
2018-12-21T04:32:50.311Z,98580.97
2018-12-21T04:35:17.743Z,98579.44
2018-12-21T04:37:45.183Z,98577.98
2018-12-21T04:40:12.591Z,98583.57
2018-12-21T04:42:40.061Z,98568.68
2018-12-21T04:45:07.550Z,98562.14
2018-12-21T04:47:34.996Z,98554.20
2018-12-21T04:50:02.444Z,98565.34
2018-12-21T04:52:29.864Z,98556.14
2018-12-21T04:54:57.309Z,98553.59
2018-12-21T04:57:24.735Z,98550.73
2018-12-21T04:59:52.191Z,98544.61
2018-12-21T05:02:19.610Z,98538.96
2018-12-21T05:04:47.029Z,98537.98
2018-12-21T05:07:14.489Z,98525.03
2018-12-21T05:09:41.957Z,98534.80
2018-12-21T05:12:09.375Z,98538.92
2018-12-21T05:14:36.819Z,98531.44
2018-12-21T05:17:04.262Z,98541.23
2018-12-21T05:19:31.720Z,98540.80
2018-12-21T05:21:59.182Z,98523.22
2018-12-21T05:24:26.603Z,98523.29
2018-12-21T05:26:54.042Z,98514.92
2018-12-21T05:29:21.526Z,98517.16
2018-12-21T05:31:48.965Z,98501.33
2018-12-21T05:34:16.375Z,98495.72
2018-12-21T05:36:43.811Z,98497.44
2018-12-21T05:39:11.246Z,98488.02
2018-12-21T05:41:38.716Z,98491.61
2018-12-21T05:44:06.136Z,98479.41
2018-12-21T05:46:33.595Z,98473.00
2018-12-21T05:49:01.018Z,98465.81
2018-12-21T05:51:28.439Z,98457.39
2018-12-21T05:53:55.871Z,98441.11
2018-12-21T05:56:23.278Z,98447.41
2018-12-21T05:58:50.725Z,98426.41
2018-12-21T06:01:18.158Z,98421.73
2018-12-21T06:03:45.606Z,98412.45
2018-12-21T06:06:13.125Z,98418.92
2018-12-21T06:08:40.512Z,98401.77
2018-12-21T06:11:07.996Z,98396.88
2018-12-21T06:13:35.411Z,98386.48
2018-12-21T06:16:02.885Z,98370.00
2018-12-21T06:18:30.427Z,98364.16
2018-12-21T06:20:57.796Z,98365.09
2018-12-21T06:23:25.219Z,98345.41
2018-12-21T06:25:52.686Z,98336.44
2018-12-21T06:28:20.127Z,98332.97
2018-12-21T06:30:48.667Z,98327.16
2018-12-21T06:33:16.123Z,98307.97
2018-12-21T06:35:43.543Z,98299.32
2018-12-21T06:38:10.995Z,98294.47
2018-12-21T06:40:38.425Z,98276.77
2018-12-21T06:43:05.882Z,98271.30
2018-12-21T06:45:33.341Z,98272.00
2018-12-21T06:48:00.780Z,98254.98
2018-12-21T06:50:28.286Z,98264.02
2018-12-21T06:52:55.749Z,98243.15
2018-12-21T06:55:23.174Z,98241.03
2018-12-21T06:57:50.613Z,98235.69
2018-12-21T07:00:18.053Z,98239.56
2018-12-21T07:02:45.483Z,98235.06
2018-12-21T07:05:12.909Z,98230.75
2018-12-21T07:07:40.386Z,98220.47
2018-12-21T07:10:07.796Z,98232.55
2018-12-21T07:12:35.205Z,98224.83
2018-12-21T07:15:02.656Z,98212.97
2018-12-21T07:17:30.102Z,98217.13
2018-12-21T07:19:57.540Z,98219.85
2018-12-21T07:22:25.052Z,98211.60
2018-12-21T07:24:52.538Z,98205.31
2018-12-21T07:27:19.945Z,98211.11
2018-12-21T07:29:47.354Z,98187.08
2018-12-21T07:32:14.796Z,98192.38
2018-12-21T07:34:42.246Z,98182.66
2018-12-21T07:37:10.551Z,98195.45
2018-12-21T07:39:38.053Z,98181.13
2018-12-21T07:42:05.495Z,98179.37
2018-12-21T07:44:32.970Z,98180.95
2018-12-21T07:47:00.399Z,98171.84
2018-12-21T07:49:28.093Z,98178.98
2018-12-21T07:51:55.523Z,98176.09
2018-12-21T07:54:22.979Z,98170.87
2018-12-21T07:56:50.414Z,98154.34
2018-12-21T07:59:17.842Z,98143.06
2018-12-21T08:01:45.311Z,98144.61
2018-12-21T08:04:12.751Z,98136.52
2018-12-21T08:06:40.219Z,98130.27
2018-12-21T08:09:07.660Z,98117.94
2018-12-21T08:11:35.113Z,98106.69
2018-12-21T08:14:02.544Z,98105.78
2018-12-21T08:16:29.973Z,98091.23
2018-12-21T08:18:57.390Z,98081.11
2018-12-21T08:21:24.818Z,98078.13
2018-12-21T08:23:52.263Z,98070.36
2018-12-21T08:26:19.753Z,98055.83
2018-12-21T08:28:47.196Z,98060.11
2018-12-21T08:31:14.634Z,98036.48
2018-12-21T08:33:42.056Z,98045.03
2018-12-21T08:36:09.461Z,98047.42
2018-12-21T08:38:36.904Z,98041.48
2018-12-21T08:41:04.332Z,98036.83
2018-12-21T08:43:31.796Z,98023.94
2018-12-21T08:45:59.214Z,98012.00
2018-12-21T08:50:59.782Z,97996.63
2018-12-21T08:53:27.203Z,97988.91
2018-12-21T08:55:54.647Z,97989.02
2018-12-21T08:58:22.063Z,97984.06
2018-12-21T09:00:49.472Z,97975.80
2018-12-21T09:03:16.907Z,97977.59
2018-12-21T09:05:44.343Z,97962.55
2018-12-21T09:08:11.797Z,97954.20
2018-12-21T09:10:39.213Z,97946.41
2018-12-21T09:13:06.661Z,97953.00
2018-12-21T09:15:35.535Z,97951.00
2018-12-21T09:18:02.975Z,97934.78
2018-12-21T09:20:30.413Z,97933.38
2018-12-21T09:22:57.835Z,97934.20
2018-12-21T09:25:25.273Z,97911.98
2018-12-21T09:27:52.689Z,97919.23
2018-12-21T09:30:20.121Z,97907.79
2018-12-21T09:32:47.565Z,97903.38
2018-12-21T09:35:15.011Z,97902.50
2018-12-21T09:37:42.455Z,97907.31
2018-12-21T09:40:09.901Z,97914.75
2018-12-21T09:42:37.324Z,97895.53
2018-12-21T09:45:05.652Z,97879.95
2018-12-21T09:47:33.094Z,97883.36
2018-12-21T09:50:00.545Z,97902.84
2018-12-21T09:52:28.054Z,97884.17
2018-12-21T09:54:55.468Z,97880.31
2018-12-21T09:57:22.925Z,97885.92
2018-12-21T09:59:50.332Z,97893.08
2018-12-21T10:02:17.794Z,97870.25
2018-12-21T10:04:45.205Z,97868.14
2018-12-21T10:07:12.671Z,97874.34
2018-12-21T10:09:40.099Z,97848.45
2018-12-21T10:12:07.828Z,97855.33
2018-12-21T10:14:35.239Z,97865.83
2018-12-21T10:17:02.681Z,97869.23
2018-12-21T10:19:30.853Z,97851.98
2018-12-21T10:21:58.311Z,97849.84
2018-12-21T10:24:25.976Z,97847.47
2018-12-21T10:26:53.439Z,97850.58
2018-12-21T10:29:20.862Z,97831.66
2018-12-21T10:31:49.077Z,97836.28
2018-12-21T10:34:17.730Z,97829.98
2018-12-21T10:36:45.400Z,97831.88
2018-12-21T10:39:12.748Z,97830.67
2018-12-21T10:41:40.214Z,97836.07
2018-12-21T10:44:07.676Z,97841.27
2018-12-21T10:46:36.057Z,97828.31
2018-12-21T10:49:04.450Z,97838.14
2018-12-21T10:51:31.967Z,97826.88
2018-12-21T10:53:59.406Z,97818.70
2018-12-21T10:56:26.855Z,97818.31
2018-12-21T10:58:54.279Z,97809.98
2018-12-21T11:01:21.730Z,97826.33
2018-12-21T11:03:49.153Z,97823.20
2018-12-21T11:06:16.602Z,97824.02
2018-12-21T11:08:44.026Z,97814.00
2018-12-21T11:11:11.459Z,97812.63
2018-12-21T11:13:39.717Z,97800.27
2018-12-21T11:16:07.237Z,97815.15
2018-12-21T11:18:34.658Z,97818.80
2018-12-21T11:21:02.102Z,97822.13
2018-12-21T11:23:29.543Z,97814.01
2018-12-21T11:25:56.973Z,97806.31
2018-12-21T11:28:25.504Z,97807.91
2018-12-21T11:30:51.843Z,97810.89
2018-12-21T11:33:19.291Z,97814.20
2018-12-21T11:35:46.732Z,97799.94
2018-12-21T11:38:14.163Z,97789.39
2018-12-21T11:40:41.695Z,97785.66
2018-12-21T11:43:09.131Z,97785.08
2018-12-21T11:45:36.565Z,97795.59
2018-12-21T11:48:04.013Z,97788.59
2018-12-21T11:50:31.449Z,97788.30
2018-12-21T11:52:58.892Z,97791.45
2018-12-21T11:55:26.571Z,97781.81
2018-12-21T11:57:54.054Z,97771.33
2018-12-21T12:00:22.288Z,97757.34
2018-12-21T12:02:49.722Z,97768.36
2018-12-21T12:05:17.144Z,97766.55
2018-12-21T12:07:44.612Z,97774.70
2018-12-21T12:10:12.054Z,97767.67
2018-12-21T12:12:39.522Z,97759.09
2018-12-21T12:15:07.293Z,97771.37
2018-12-21T12:17:34.745Z,97778.16
2018-12-21T12:20:02.162Z,97773.57
2018-12-21T12:22:29.617Z,97770.14
2018-12-21T12:24:57.027Z,97775.79
2018-12-21T12:27:25.316Z,97772.52
2018-12-21T12:29:53.362Z,97778.36
2018-12-21T12:32:20.822Z,97761.92
2018-12-21T12:34:48.271Z,97792.11
2018-12-21T12:37:15.716Z,97784.50
2018-12-21T12:39:43.152Z,97764.51
2018-12-21T12:42:10.603Z,97777.60
2018-12-21T12:44:38.163Z,97773.54
2018-12-21T12:47:05.713Z,97787.09
2018-12-21T12:49:33.181Z,97789.76
2018-12-21T12:52:00.603Z,97780.11
2018-12-21T12:54:28.041Z,97794.83
2018-12-21T12:56:55.459Z,97797.07
2018-12-21T12:59:22.909Z,97793.05
2018-12-21T13:01:50.372Z,97843.80
2018-12-21T13:04:17.826Z,97806.30
2018-12-21T13:06:45.265Z,97816.66
2018-12-21T13:09:12.709Z,97808.66
2018-12-21T13:11:40.117Z,97820.95
2018-12-21T13:14:07.902Z,97807.50
2018-12-21T13:16:35.465Z,97809.61
2018-12-21T13:19:02.916Z,97818.52
2018-12-21T13:21:30.373Z,97805.66
2018-12-21T13:23:57.803Z,97818.29
2018-12-21T13:26:25.258Z,97824.17
2018-12-21T13:28:52.691Z,97833.64
2018-12-21T13:31:20.170Z,97818.73
2018-12-21T13:33:47.610Z,97833.38
2018-12-21T13:36:15.070Z,97835.08
2018-12-21T13:38:42.515Z,97826.70
2018-12-21T13:41:09.925Z,97859.10
2018-12-21T13:43:37.362Z,97862.42
2018-12-21T13:46:04.870Z,97853.52
2018-12-21T13:48:32.327Z,97859.73
2018-12-21T13:50:59.781Z,97873.66
2018-12-21T13:53:27.195Z,97867.18
2018-12-21T13:55:54.684Z,97881.61
2018-12-21T13:58:22.118Z,97880.19
2018-12-21T14:00:49.565Z,97874.33
2018-12-21T14:03:16.999Z,97888.69
2018-12-21T14:05:44.449Z,97878.19
2018-12-21T14:08:11.909Z,97886.58
2018-12-21T14:10:39.319Z,97887.45
2018-12-21T14:13:06.777Z,97899.64
2018-12-21T14:15:34.269Z,97907.76
2018-12-21T14:18:01.706Z,97922.88
2018-12-21T14:20:29.147Z,97918.76
2018-12-21T14:22:56.582Z,97925.58
2018-12-21T14:25:28.801Z,97943.64
2018-12-21T14:27:51.482Z,97945.97
2018-12-21T14:30:18.937Z,97944.56
2018-12-21T14:32:46.418Z,97965.12
2018-12-21T14:35:13.840Z,97962.20
2018-12-21T14:37:41.272Z,97963.71
2018-12-21T14:40:08.695Z,97963.91
2018-12-21T14:42:36.148Z,97963.66
2018-12-21T14:45:03.583Z,97970.97
2018-12-21T14:47:31.024Z,97974.17
2018-12-21T14:49:58.463Z,97979.30
2018-12-21T14:52:25.899Z,97983.49
2018-12-21T14:54:53.333Z,97973.19
2018-12-21T14:57:20.794Z,97978.49
2018-12-21T14:59:48.229Z,97997.63
2018-12-21T15:02:15.676Z,98000.22
2018-12-21T15:04:43.113Z,97999.48
2018-12-21T15:07:10.550Z,97994.75
2018-12-21T15:09:37.998Z,98014.53
2018-12-21T15:12:05.431Z,98000.80
2018-12-21T15:14:32.846Z,98007.20
2018-12-21T15:17:00.304Z,98017.77
2018-12-21T15:19:27.729Z,98020.28
2018-12-21T15:21:57.310Z,98031.02
2018-12-21T15:24:22.651Z,98025.59
2018-12-21T15:26:50.125Z,98021.50
2018-12-21T15:29:17.562Z,98023.53
2018-12-21T15:31:45.001Z,98019.43
2018-12-21T15:34:12.452Z,98032.94
2018-12-21T15:36:39.905Z,98044.59
2018-12-21T15:39:07.363Z,98037.85
2018-12-21T15:41:34.819Z,98049.31
2018-12-21T15:44:02.259Z,98032.93
2018-12-21T15:46:29.703Z,98093.41
2018-12-21T15:48:57.162Z,98049.48
2018-12-21T15:51:24.611Z,98054.81
2018-12-21T15:53:52.058Z,98054.41
2018-12-21T15:56:19.483Z,98061.31
2018-12-21T15:58:47.029Z,98077.44
2018-12-21T16:01:14.458Z,98081.92
2018-12-21T16:03:41.901Z,98090.83
2018-12-21T16:06:09.318Z,98091.81
2018-12-21T16:08:36.767Z,98092.00
2018-12-21T16:11:04.186Z,98090.66
2018-12-21T16:13:31.645Z,98083.59
2018-12-21T16:15:59.091Z,98098.80
2018-12-21T16:18:26.525Z,98084.07
2018-12-21T16:20:54.079Z,98094.44
2018-12-21T16:23:21.424Z,98092.15
2018-12-21T16:25:48.870Z,98094.87
2018-12-21T16:28:16.304Z,98093.63
2018-12-21T16:30:43.749Z,98106.12
2018-12-21T16:33:11.214Z,98115.82
2018-12-21T16:35:38.659Z,98107.75
2018-12-21T16:38:06.099Z,98115.16
2018-12-21T16:40:33.538Z,98117.06
2018-12-21T16:43:01.073Z,98131.09
2018-12-21T16:45:28.506Z,98126.00
2018-12-21T16:47:55.962Z,98114.82
2018-12-21T16:50:23.398Z,98115.84
2018-12-21T16:52:50.862Z,98119.00
2018-12-21T16:55:18.289Z,98137.31
2018-12-21T16:57:45.731Z,98137.45
2018-12-21T17:00:13.227Z,98137.69
2018-12-21T17:02:40.675Z,98152.56
2018-12-21T17:05:08.094Z,98168.59
2018-12-21T17:07:35.542Z,98165.52
2018-12-21T17:10:02.993Z,98165.66
2018-12-21T17:12:30.420Z,98183.83
2018-12-21T17:14:57.865Z,98197.83
2018-12-21T17:17:25.302Z,98200.55
2018-12-21T17:19:52.757Z,98194.59
2018-12-21T17:22:20.181Z,98195.05
2018-12-21T17:24:47.628Z,98198.89
2018-12-21T17:27:15.064Z,98216.27
2018-12-21T17:29:42.503Z,98199.48
2018-12-21T17:32:09.918Z,98207.95
2018-12-21T17:34:37.374Z,98226.06
2018-12-21T17:37:05.810Z,98232.59
2018-12-21T17:39:33.262Z,98234.31
2018-12-21T17:42:00.687Z,98231.30
2018-12-21T17:44:28.122Z,98233.89
2018-12-21T17:46:55.593Z,98256.30
2018-12-21T17:49:23.048Z,98251.15
2018-12-21T17:51:50.480Z,98250.28
2018-12-21T17:54:17.954Z,98271.20
2018-12-21T17:56:45.419Z,98285.11
2018-12-21T17:59:14.421Z,98282.34
2018-12-21T18:01:41.228Z,98283.94
2018-12-21T18:04:08.821Z,98278.73
2018-12-21T18:06:36.257Z,98303.64
2018-12-21T18:09:03.711Z,98281.19
2018-12-21T18:11:31.134Z,98295.38
2018-12-21T18:13:58.590Z,98294.61
2018-12-21T18:16:26.050Z,98311.06
2018-12-21T18:18:53.471Z,98332.61
2018-12-21T18:21:20.983Z,98319.15
2018-12-21T18:23:48.456Z,98298.66
2018-12-21T18:26:15.871Z,98323.16
2018-12-21T18:28:43.326Z,98330.59
2018-12-21T18:31:10.750Z,98346.06
2018-12-21T18:33:38.312Z,98327.23
2018-12-21T18:36:05.786Z,98323.05
2018-12-21T18:38:33.241Z,98326.16
2018-12-21T18:41:00.677Z,98326.98
2018-12-21T18:43:28.149Z,98344.94
2018-12-21T18:45:55.576Z,98339.59
2018-12-21T18:48:23.019Z,98343.38
2018-12-21T18:50:50.541Z,98350.17
2018-12-21T18:53:18.051Z,98346.38
2018-12-21T18:55:46.883Z,98349.78
2018-12-21T18:58:14.407Z,98356.81
2018-12-21T19:00:41.862Z,98358.69
2018-12-21T19:03:09.283Z,98351.81
2018-12-21T19:05:36.750Z,98354.05
2018-12-21T19:08:04.318Z,98377.20
2018-12-21T19:10:31.813Z,98359.39
2018-12-21T19:12:59.407Z,98364.19
2018-12-21T19:15:26.877Z,98387.66
2018-12-21T19:17:54.403Z,98393.79
2018-12-21T19:20:21.844Z,98386.67
2018-12-21T19:22:49.270Z,98396.55
2018-12-21T19:25:16.721Z,98379.40
2018-12-21T19:27:44.182Z,98378.33
2018-12-21T19:30:11.693Z,98389.12
2018-12-21T19:32:40.057Z,98373.83
2018-12-21T19:35:07.525Z,98370.05
2018-12-21T19:37:34.961Z,98384.09
2018-12-21T19:40:02.398Z,98378.33
2018-12-21T19:42:29.853Z,98393.31
2018-12-21T19:44:57.273Z,98397.55
2018-12-21T19:47:24.729Z,98394.90
2018-12-21T19:49:52.177Z,98405.39
2018-12-21T19:52:19.655Z,98400.30
2018-12-21T19:54:47.149Z,98398.19
2018-12-21T19:57:14.609Z,98392.02
2018-12-21T19:59:42.040Z,98410.96
2018-12-21T20:02:09.476Z,98405.63
2018-12-21T20:04:36.946Z,98422.56
2018-12-21T20:07:04.410Z,98427.69
2018-12-21T20:09:31.921Z,98418.38
2018-12-21T20:11:59.346Z,98422.91
2018-12-21T20:14:26.825Z,98424.81
2018-12-21T20:16:54.254Z,98421.41
2018-12-21T20:19:21.722Z,98428.66
2018-12-21T20:21:49.229Z,98422.24
2018-12-21T20:24:16.798Z,98425.66
2018-12-21T20:26:44.260Z,98411.97
2018-12-21T20:29:11.715Z,98418.18
2018-12-21T20:31:39.142Z,98421.34
2018-12-21T20:34:06.595Z,98425.63
2018-12-21T20:36:34.028Z,98434.45
2018-12-21T20:39:01.521Z,98442.29
2018-12-21T20:41:28.959Z,98431.35
2018-12-21T20:43:56.410Z,98438.39
2018-12-21T20:46:23.841Z,98449.58
2018-12-21T20:48:51.308Z,98463.17
2018-12-21T20:51:18.783Z,98458.17
2018-12-21T20:53:46.213Z,98452.65
2018-12-21T20:56:13.692Z,98462.05
2018-12-21T20:58:41.130Z,98455.48
2018-12-21T21:01:08.563Z,98460.21
2018-12-21T21:03:36.025Z,98463.19
2018-12-21T21:06:03.477Z,98461.23
2018-12-21T21:08:30.916Z,98467.38
2018-12-21T21:10:58.377Z,98480.11
2018-12-21T21:13:25.824Z,98501.12
2018-12-21T21:15:53.280Z,98482.35
2018-12-21T21:18:20.727Z,98495.98
2018-12-21T21:20:48.170Z,98480.55
2018-12-21T21:23:15.609Z,98495.59
2018-12-21T21:25:43.155Z,98496.48
2018-12-21T21:28:10.613Z,98501.64
2018-12-21T21:30:38.030Z,98498.89
2018-12-21T21:33:05.868Z,98496.19
2018-12-21T21:35:33.286Z,98506.55
2018-12-21T21:38:00.749Z,98504.84
2018-12-21T21:40:28.180Z,98509.48
2018-12-21T21:42:57.727Z,98512.61
2018-12-21T21:45:23.080Z,98520.49
2018-12-21T21:47:50.529Z,98515.18
2018-12-21T21:50:17.985Z,98509.09
2018-12-21T21:52:45.458Z,98510.25
2018-12-21T21:55:12.980Z,98515.05
2018-12-21T21:57:40.436Z,98529.92
2018-12-21T22:00:07.901Z,98519.63
2018-12-21T22:02:35.345Z,98527.98
2018-12-21T22:05:02.923Z,98535.28
2018-12-21T22:07:30.353Z,98544.70
2018-12-21T22:09:57.805Z,98551.05
2018-12-21T22:12:25.446Z,98545.57
2018-12-21T22:14:52.928Z,98555.80
2018-12-21T22:17:20.354Z,98549.59
2018-12-21T22:19:47.816Z,98556.03
2018-12-21T22:22:15.357Z,98558.67
2018-12-21T22:24:43.066Z,98561.63
2018-12-21T22:27:10.523Z,98558.89
2018-12-21T22:29:37.959Z,98570.92
2018-12-21T22:32:05.408Z,98561.16
2018-12-21T22:34:32.826Z,98565.74
2018-12-21T22:37:00.279Z,98556.27
2018-12-21T22:39:27.709Z,98556.70
2018-12-21T22:41:55.146Z,98568.16
2018-12-21T22:44:22.571Z,98555.63
2018-12-21T22:46:50.017Z,98559.41
2018-12-21T22:49:17.440Z,98559.34
2018-12-21T22:51:46.522Z,98555.72
2018-12-21T22:54:12.427Z,98569.13
2018-12-21T22:56:39.870Z,98576.02
2018-12-21T22:59:07.346Z,98580.09
2018-12-21T23:01:34.834Z,98577.56
2018-12-21T23:04:02.553Z,98578.64
2018-12-21T23:06:30.070Z,98578.12
2018-12-21T23:08:57.502Z,98590.71
2018-12-21T23:11:25.831Z,98582.74
2018-12-21T23:13:53.342Z,98582.31
2018-12-21T23:16:20.909Z,98586.64
2018-12-21T23:18:48.342Z,98594.32
2018-12-21T23:21:15.786Z,98593.16
2018-12-21T23:23:43.237Z,98595.97
2018-12-21T23:26:10.664Z,98595.89
2018-12-21T23:28:38.117Z,98598.28
2018-12-21T23:31:05.901Z,98597.53
2018-12-21T23:33:33.347Z,98604.06
2018-12-21T23:36:00.941Z,98602.37
2018-12-21T23:38:28.377Z,98597.03
2018-12-21T23:40:55.833Z,98600.14
2018-12-21T23:43:23.289Z,98604.58
2018-12-21T23:45:50.707Z,98611.53
2018-12-21T23:48:18.153Z,98599.80
2018-12-21T23:50:45.628Z,98610.09
2018-12-21T23:53:13.082Z,98600.99
2018-12-21T23:55:40.520Z,98608.58
2018-12-21T23:58:13.652Z,98615.63
